Time;durP1;ratioP1;P1;durP2;ratioP2;P2;SDS_P1;SDS_P2;PMS_P1;PMS_P2;Temp;Humidity;BMP_temperature;BMP_pressure;BME280_temperature;BME280_humidity;BME280_pressure;Samples;Min_cycle;Max_cycle;Signal;HPM_P1;HPM_P2
2021/07/23 00:01:29;;;;;;;0.85;0.85;;;21.00;99.90;;;;;;5090415;28;20181;-68
2021/07/23 00:03:55;;;;;;;0.38;0.38;;;21.00;99.90;;;;;;5090439;28;20536;-68
2021/07/23 00:06:20;;;;;;;0.63;0.63;;;20.90;99.90;;;;;;5090442;28;20167;-68
2021/07/23 00:08:46;;;;;;;0.65;0.65;;;20.80;99.90;;;;;;5090782;28;20203;-69
2021/07/23 00:11:12;;;;;;;0.60;0.47;;;20.70;99.90;;;;;;5090086;28;20202;-68
2021/07/23 00:13:38;;;;;;;1.05;1.02;;;20.70;99.90;;;;;;5090646;28;20172;-68
2021/07/23 00:16:04;;;;;;;0.68;0.20;;;20.80;99.90;;;;;;5090285;28;20227;-68
2021/07/23 00:18:30;;;;;;;0.85;0.85;;;20.80;99.90;;;;;;5090560;28;20196;-68
2021/07/23 00:20:56;;;;;;;1.27;0.93;;;20.80;99.90;;;;;;5090702;28;20182;-68
2021/07/23 00:23:21;;;;;;;0.38;0.38;;;20.70;99.90;;;;;;5088349;28;20175;-68
2021/07/23 00:25:47;;;;;;;1.08;1.02;;;20.60;99.90;;;;;;5090558;28;20167;-69
2021/07/23 00:28:13;;;;;;;0.75;0.70;;;20.60;99.90;;;;;;5090091;28;20258;-68
2021/07/23 00:30:40;;;;;;;0.63;0.63;;;20.60;99.90;;;;;;5090510;28;20183;-69
2021/07/23 00:33:05;;;;;;;0.40;0.28;;;20.50;99.90;;;;;;5090459;28;20678;-68
2021/07/23 00:35:32;;;;;;;1.70;0.70;;;20.50;99.90;;;;;;5090276;28;20152;-68
2021/07/23 00:37:58;;;;;;;0.90;0.90;;;20.50;99.90;;;;;;5088662;28;20200;-68
2021/07/23 00:40:25;;;;;;;0.28;0.28;;;20.50;99.90;;;;;;5090430;28;20187;-66
2021/07/23 00:42:50;;;;;;;1.40;0.85;;;20.50;99.90;;;;;;5090379;28;20575;-68
2021/07/23 00:45:18;;;;;;;0.40;0.40;;;20.40;99.90;;;;;;5089974;28;20230;-68
2021/07/23 00:47:48;;;;;;;0.80;0.55;;;20.30;99.90;;;;;;5088153;28;20243;-69
2021/07/23 00:50:14;;;;;;;0.28;0.28;;;20.10;99.90;;;;;;5090213;28;20247;-68
2021/07/23 00:52:40;;;;;;;0.52;0.52;;;20.00;99.90;;;;;;5090160;28;20157;-68
2021/07/23 00:55:11;;;;;;;0.32;0.32;;;19.80;99.90;;;;;;5089951;28;20184;-69
2021/07/23 00:57:39;;;;;;;1.90;1.30;;;19.80;99.90;;;;;;5089598;28;20537;-68
2021/07/23 01:00:05;;;;;;;1.33;0.88;;;19.80;99.90;;;;;;5089088;28;20163;-69
2021/07/23 01:02:31;;;;;;;1.05;0.93;;;19.80;99.90;;;;;;5088568;28;20615;-68
2021/07/23 01:04:57;;;;;;;0.57;0.55;;;19.90;99.90;;;;;;5089703;28;20163;-68
2021/07/23 01:07:23;;;;;;;0.60;0.60;;;19.80;99.90;;;;;;5088309;28;20204;-68
2021/07/23 01:09:49;;;;;;;1.77;0.82;;;19.90;99.90;;;;;;5089814;28;20148;-68
2021/07/23 01:12:15;;;;;;;0.75;0.70;;;19.90;99.90;;;;;;5089815;28;20208;-68
2021/07/23 01:14:42;;;;;;;2.75;1.80;;;19.80;99.90;;;;;;5089516;28;20156;-68
2021/07/23 01:17:08;;;;;;;0.57;0.43;;;19.90;99.90;;;;;;5089628;28;20214;-68
2021/07/23 01:20:00;;;;;;;0.47;0.47;;;19.80;99.90;;;;;;5077131;28;20180;-69
2021/07/23 01:22:30;;;;;;;15.30;1.02;;;19.80;99.90;;;;;;5078636;28;20164;-68
2021/07/23 01:24:57;;;;;;;1.05;0.60;;;19.70;99.90;;;;;;5088049;28;20184;-68
2021/07/23 01:27:26;;;;;;;0.32;0.32;;;19.70;99.90;;;;;;5088948;28;20291;-68
2021/07/23 01:30:07;;;;;;;0.60;0.60;;;19.60;99.90;;;;;;5089536;28;20620;-68
2021/07/23 01:32:34;;;;;;;0.25;0.25;;;19.50;99.90;;;;;;5089552;28;20203;-68
2021/07/23 01:35:00;;;;;;;1.17;0.73;;;19.60;99.90;;;;;;5089423;28;20219;-67
2021/07/23 01:37:26;;;;;;;0.68;0.43;;;19.70;99.90;;;;;;5088798;28;20557;-68
2021/07/23 01:39:53;;;;;;;0.60;0.60;;;19.70;99.90;;;;;;5089363;28;20644;-68
2021/07/23 01:42:20;;;;;;;0.52;0.32;;;19.80;99.90;;;;;;5089395;28;20160;-68
2021/07/23 01:44:45;;;;;;;0.80;0.80;;;19.80;99.90;;;;;;5089277;28;20159;-68
2021/07/23 01:47:11;;;;;;;0.40;0.40;;;19.70;99.90;;;;;;5089217;28;20219;-68
2021/07/23 01:49:37;;;;;;;1.88;0.75;;;19.50;99.90;;;;;;5089156;28;20183;-68
2021/07/23 01:52:04;;;;;;;1.08;0.98;;;19.40;99.90;;;;;;5089216;28;20187;-68
2021/07/23 01:54:30;;;;;;;0.73;0.73;;;19.30;99.90;;;;;;5089220;28;20175;-68
2021/07/23 01:56:56;;;;;;;0.22;0.22;;;19.10;99.90;;;;;;5088623;28;20195;-68
2021/07/23 01:59:22;;;;;;;0.75;0.65;;;19.00;99.90;;;;;;5089161;28;20155;-68
2021/07/23 02:01:48;;;;;;;1.30;0.93;;;19.00;99.90;;;;;;5089171;28;20210;-68
2021/07/23 02:04:14;;;;;;;1.33;1.17;;;19.00;99.90;;;;;;5089082;28;20164;-68
2021/07/23 02:06:40;;;;;;;1.33;0.77;;;18.90;99.90;;;;;;5087801;28;20159;-68
2021/07/23 02:09:05;;;;;;;0.75;0.75;;;18.90;99.90;;;;;;5088982;28;20203;-68
2021/07/23 02:11:31;;;;;;;0.77;0.77;;;18.80;99.90;;;;;;5092390;28;20184;-68
2021/07/23 02:14:00;;;;;;;5.72;1.30;;;18.70;99.90;;;;;;5093300;28;20180;-67
2021/07/23 02:16:26;;;;;;;0.40;0.40;;;18.70;99.90;;;;;;5091976;28;20188;-67
2021/07/23 02:18:52;;;;;;;1.38;1.05;;;18.60;99.90;;;;;;5090277;28;20167;-68
2021/07/23 02:21:17;;;;;;;0.68;0.68;;;18.40;99.90;;;;;;5089416;28;20191;-68
2021/07/23 02:23:43;;;;;;;0.17;0.17;;;18.40;99.90;;;;;;5089340;28;20258;-67
2021/07/23 02:26:23;;;;;;;1.95;1.67;;;18.30;99.90;;;;;;5089647;28;20160;-68
2021/07/23 02:28:49;;;;;;;2.85;0.73;;;18.30;99.90;;;;;;5090551;28;20156;-67
2021/07/23 02:31:18;;;;;;;0.50;0.50;;;18.30;99.90;;;;;;5090448;28;20850;-67
2021/07/23 02:33:45;;;;;;;0.75;0.75;;;18.30;99.90;;;;;;5089944;28;20168;-67
2021/07/23 02:36:13;;;;;;;0.43;0.40;;;18.20;99.90;;;;;;5092804;28;20159;-67
2021/07/23 02:38:39;;;;;;;0.75;0.75;;;18.20;99.90;;;;;;5092742;28;20656;-67
2021/07/23 02:41:05;;;;;;;0.43;0.43;;;18.30;99.90;;;;;;5092506;28;20195;-66
2021/07/23 02:43:31;;;;;;;0.47;0.30;;;18.30;99.90;;;;;;5092447;28;20191;-67
2021/07/23 02:45:57;;;;;;;1.15;1.05;;;18.30;99.90;;;;;;5092450;28;20636;-68
2021/07/23 02:48:23;;;;;;;1.15;1.05;;;18.40;99.90;;;;;;5092323;28;20245;-69
2021/07/23 02:50:50;;;;;;;1.10;0.40;;;18.50;99.90;;;;;;5092236;28;20208;-69
2021/07/23 02:53:18;;;;;;;1.30;0.82;;;18.60;99.90;;;;;;5092377;28;20282;-69
2021/07/23 02:55:51;;;;;;;0.75;0.73;;;18.70;99.90;;;;;;5092152;28;20156;-69
2021/07/23 02:58:17;;;;;;;1.73;1.00;;;18.70;99.90;;;;;;5092397;28;20681;-69
2021/07/23 03:00:43;;;;;;;0.77;0.77;;;18.90;99.90;;;;;;5091957;28;20188;-69
2021/07/23 03:03:09;;;;;;;0.70;0.70;;;18.90;99.90;;;;;;5091551;28;20160;-68
2021/07/23 03:05:34;;;;;;;0.20;0.20;;;18.90;99.90;;;;;;5091462;28;20171;-69
2021/07/23 03:08:00;;;;;;;3.65;1.55;;;18.90;99.90;;;;;;5091328;28;20171;-66
2021/07/23 03:10:26;;;;;;;1.35;1.27;;;18.90;99.90;;;;;;5090926;28;20188;-66
2021/07/23 03:12:52;;;;;;;0.57;0.57;;;18.80;99.90;;;;;;5091480;28;20366;-67
2021/07/23 03:15:18;;;;;;;0.80;0.70;;;18.70;99.90;;;;;;5091382;28;20243;-69
2021/07/23 03:17:44;;;;;;;0.38;0.38;;;18.70;99.90;;;;;;5091222;28;20160;-69
2021/07/23 03:20:11;;;;;;;1.00;0.40;;;18.60;99.90;;;;;;5091266;28;20617;-68
2021/07/23 03:22:37;;;;;;;0.90;0.90;;;18.50;99.90;;;;;;5088849;28;20202;-68
2021/07/23 03:25:03;;;;;;;0.80;0.80;;;18.40;99.90;;;;;;5089849;28;20172;-69
2021/07/23 03:27:29;;;;;;;0.68;0.68;;;18.30;99.90;;;;;;5078146;28;20211;-69
2021/07/23 03:29:55;;;;;;;1.70;1.38;;;18.30;99.90;;;;;;5071001;28;20172;-68
2021/07/23 03:32:21;;;;;;;1.38;1.08;;;18.30;99.90;;;;;;5071246;28;20198;-68
2021/07/23 03:34:47;;;;;;;2.60;2.25;;;18.30;99.90;;;;;;5071594;28;20236;-68
2021/07/23 03:37:14;;;;;;;0.82;0.82;;;18.30;99.90;;;;;;5071592;28;20205;-69
2021/07/23 03:39:39;;;;;;;0.82;0.82;;;18.40;99.90;;;;;;5071433;28;20212;-68
2021/07/23 03:42:05;;;;;;;0.75;0.73;;;18.50;99.90;;;;;;5071397;28;20156;-69
2021/07/23 03:44:31;;;;;;;4.85;1.95;;;18.50;99.90;;;;;;5071359;28;20165;-68
2021/07/23 03:46:57;;;;;;;1.25;0.57;;;18.60;99.90;;;;;;5070950;28;20283;-69
2021/07/23 03:49:23;;;;;;;1.13;1.13;;;18.50;99.90;;;;;;5071275;28;20195;-69
2021/07/23 03:51:49;;;;;;;2.78;0.55;;;18.50;99.90;;;;;;5069700;28;20204;-68
2021/07/23 03:54:14;;;;;;;0.10;0.10;;;18.50;99.90;;;;;;5069811;28;20165;-69
2021/07/23 03:56:40;;;;;;;0.52;0.45;;;18.50;99.90;;;;;;5070945;28;20196;-68
2021/07/23 03:59:06;;;;;;;9.85;1.85;;;18.40;99.90;;;;;;5071116;28;20164;-68
2021/07/23 04:01:32;;;;;;;6.55;2.58;;;18.40;99.90;;;;;;5070992;28;20318;-69
2021/07/23 04:03:58;;;;;;;2.97;0.73;;;18.40;99.90;;;;;;5070949;28;20168;-69
2021/07/23 04:06:26;;;;;;;0.85;0.85;;;18.40;99.90;;;;;;5070815;28;20524;-70
2021/07/23 04:08:54;;;;;;;0.68;0.60;;;18.30;99.90;;;;;;5070792;28;20161;-68
2021/07/23 04:11:30;;;;;;;2.80;1.23;;;18.30;99.90;;;;;;5070622;28;20193;-68
2021/07/23 04:13:56;;;;;;;0.68;0.68;;;18.50;99.90;;;;;;5070775;28;20183;-69
2021/07/23 04:16:22;;;;;;;2.10;0.60;;;18.70;99.90;;;;;;5070617;28;20165;-69
2021/07/23 04:18:48;;;;;;;1.48;1.38;;;18.70;99.90;;;;;;5069393;28;20172;-66
2021/07/23 04:21:14;;;;;;;1.00;0.95;;;18.70;99.90;;;;;;5070639;28;20191;-68
2021/07/23 04:23:39;;;;;;;0.63;0.63;;;18.70;99.90;;;;;;5070642;28;20157;-69
2021/07/23 04:26:08;;;;;;;0.70;0.70;;;18.60;99.90;;;;;;5070516;28;20247;-68
2021/07/23 04:28:35;;;;;;;1.20;0.93;;;18.70;99.90;;;;;;5070301;28;20189;-69
2021/07/23 04:31:00;;;;;;;1.27;0.60;;;18.60;99.90;;;;;;5069040;28;20220;-69
2021/07/23 04:33:28;;;;;;;0.50;0.50;;;18.60;99.90;;;;;;5070371;28;20161;-68
2021/07/23 04:35:53;;;;;;;0.60;0.60;;;18.60;99.90;;;;;;5069135;28;20659;-69
2021/07/23 04:38:19;;;;;;;1.42;1.25;;;18.70;99.90;;;;;;5070253;28;20254;-68
2021/07/23 04:40:45;;;;;;;0.65;0.65;;;18.70;99.90;;;;;;5070183;28;20161;-69
2021/07/23 04:43:11;;;;;;;3.10;1.75;;;18.70;99.90;;;;;;5070126;28;20168;-69
2021/07/23 04:45:37;;;;;;;0.50;0.50;;;18.70;99.90;;;;;;5070407;28;20160;-69
2021/07/23 04:48:03;;;;;;;0.55;0.55;;;18.80;99.90;;;;;;5069851;28;20278;-68
2021/07/23 04:50:29;;;;;;;0.80;0.80;;;18.80;99.90;;;;;;5069849;28;20189;-69
2021/07/23 04:52:56;;;;;;;0.65;0.55;;;19.00;99.90;;;;;;5070064;28;20189;-69
2021/07/23 04:55:23;;;;;;;0.30;0.30;;;19.00;99.90;;;;;;5069966;28;20210;-69
2021/07/23 04:57:50;;;;;;;0.90;0.82;;;19.10;99.90;;;;;;5069875;28;20252;-69
2021/07/23 05:00:16;;;;;;;0.28;0.28;;;19.20;99.90;;;;;;5068473;28;20164;-69
2021/07/23 05:02:42;;;;;;;1.13;1.13;;;19.30;99.90;;;;;;5069811;28;20160;-69
2021/07/23 05:05:13;;;;;;;2.90;1.88;;;19.50;99.90;;;;;;5069635;28;20164;-69
2021/07/23 05:07:40;;;;;;;1.50;1.02;;;20.00;99.90;;;;;;5069656;28;20214;-69
2021/07/23 05:10:07;;;;;;;0.40;0.40;;;20.40;99.90;;;;;;5069652;28;20153;-69
2021/07/23 05:12:34;;;;;;;1.65;1.55;;;20.90;99.90;;;;;;5069598;28;20228;-68
2021/07/23 05:15:02;;;;;;;1.27;1.08;;;20.90;99.90;;;;;;5069587;28;20156;-69
2021/07/23 05:17:29;;;;;;;1.85;0.85;;;20.40;99.90;;;;;;5069412;28;20191;-69
2021/07/23 05:19:55;;;;;;;3.30;0.95;;;20.40;99.90;;;;;;5069574;28;20156;-69
2021/07/23 05:22:21;;;;;;;3.53;1.65;;;20.50;99.90;;;;;;5069483;28;20160;-68
2021/07/23 05:24:48;;;;;;;2.55;1.15;;;20.50;99.90;;;;;;5069366;28;20808;-69
2021/07/23 05:27:14;;;;;;;0.88;0.70;;;20.50;99.90;;;;;;5069222;28;20218;-69
2021/07/23 05:29:41;;;;;;;0.30;0.30;;;20.40;99.90;;;;;;5069216;28;20161;-68
2021/07/23 05:32:07;;;;;;;1.67;1.58;;;20.60;99.90;;;;;;5068090;28;20214;-69
2021/07/23 05:34:33;;;;;;;0.55;0.55;;;20.90;99.90;;;;;;5078218;28;20184;-68
2021/07/23 05:36:59;;;;;;;4.68;1.15;;;21.30;99.90;;;;;;5088563;28;20198;-69
2021/07/23 05:39:25;;;;;;;1.33;0.98;;;21.90;99.90;;;;;;5089019;28;20697;-68
2021/07/23 05:41:51;;;;;;;1.10;1.08;;;22.50;99.90;;;;;;5088026;28;20163;-69
2021/07/23 05:44:17;;;;;;;3.47;1.60;;;23.10;99.90;;;;;;5088767;28;20238;-68
2021/07/23 05:46:42;;;;;;;2.33;2.20;;;23.30;99.90;;;;;;5088676;28;20642;-68
2021/07/23 05:49:08;;;;;;;1.15;1.15;;;23.50;99.90;;;;;;5087067;28;20191;-69
2021/07/23 05:51:34;;;;;;;5.13;1.23;;;24.00;99.90;;;;;;5088856;28;20242;-69
2021/07/23 05:54:00;;;;;;;0.43;0.43;;;24.00;99.90;;;;;;5087737;28;20258;-68
2021/07/23 05:56:26;;;;;;;1.20;1.00;;;24.00;99.90;;;;;;5087635;28;20168;-68
2021/07/23 05:58:52;;;;;;;6.93;2.25;;;23.50;99.90;;;;;;5087170;28;20163;-68
2021/07/23 06:01:19;;;;;;;0.55;0.55;;;23.40;99.90;;;;;;5087443;28;20175;-68
2021/07/23 06:03:45;;;;;;;0.90;0.47;;;23.50;99.90;;;;;;5088839;28;20163;-68
2021/07/23 06:06:10;;;;;;;1.15;0.73;;;23.60;99.90;;;;;;5087713;28;20175;-69
2021/07/23 06:08:36;;;;;;;2.40;0.82;;;23.80;99.90;;;;;;5088101;28;20195;-69
2021/07/23 06:11:07;;;;;;;0.52;0.52;;;24.10;99.90;;;;;;5087452;28;20205;-69
2021/07/23 06:13:36;;;;;;;0.93;0.75;;;24.70;99.90;;;;;;5086296;28;20240;-69
2021/07/23 06:16:07;;;;;;;0.70;0.70;;;25.00;99.90;;;;;;5088894;28;20162;-69
2021/07/23 06:18:33;;;;;;;1.20;1.00;;;25.30;99.90;;;;;;5071554;28;20203;-69
2021/07/23 06:20:59;;;;;;;1.60;1.17;;;25.80;99.90;;;;;;5066988;28;20175;-69
2021/07/23 06:23:25;;;;;;;1.13;1.10;;;25.80;99.90;;;;;;5082768;28;20175;-69
2021/07/23 06:25:51;;;;;;;1.00;0.60;;;25.60;99.90;;;;;;5088284;28;20197;-68
2021/07/23 06:28:17;;;;;;;0.57;0.57;;;26.40;99.90;;;;;;5088365;28;20190;-68
2021/07/23 06:30:45;;;;;;;0.80;0.50;;;26.50;99.90;;;;;;5086253;28;20223;-69
2021/07/23 06:33:11;;;;;;;0.95;0.95;;;27.70;99.90;;;;;;5081496;28;20220;-68
2021/07/23 06:35:37;;;;;;;2.80;1.75;;;27.60;99.90;;;;;;5074468;28;20176;-69
2021/07/23 06:38:03;;;;;;;1.15;1.08;;;28.80;99.90;;;;;;5088394;28;20155;-69
2021/07/23 06:40:29;;;;;;;1.33;0.70;;;28.70;99.90;;;;;;5087528;28;20207;-68
2021/07/23 06:42:55;;;;;;;1.02;0.98;;;29.60;99.90;;;;;;5084623;28;20202;-69
2021/07/23 06:45:21;;;;;;;1.92;1.58;;;31.20;99.90;;;;;;5088005;28;20166;-69
2021/07/23 06:47:46;;;;;;;1.17;1.00;;;30.70;99.90;;;;;;5086567;28;20227;-69
2021/07/23 06:50:13;;;;;;;1.35;1.13;;;30.20;99.90;;;;;;5087658;28;20163;-69
2021/07/23 06:52:39;;;;;;;1.45;1.35;;;31.00;99.90;;;;;;5087880;28;20179;-68
2021/07/23 06:55:05;;;;;;;1.85;1.02;;;31.80;99.90;;;;;;5088272;28;20156;-69
2021/07/23 06:57:34;;;;;;;6.88;1.15;;;32.10;99.90;;;;;;5089528;28;20154;-69
2021/07/23 07:00:00;;;;;;;1.23;1.02;;;32.30;99.90;;;;;;5091804;28;20195;-68
2021/07/23 07:02:26;;;;;;;0.88;0.88;;;32.10;99.90;;;;;;5089058;28;20260;-68
2021/07/23 07:04:52;;;;;;;1.35;1.10;;;31.40;99.90;;;;;;5088286;28;20175;-68
2021/07/23 07:07:18;;;;;;;4.63;1.33;;;31.60;99.90;;;;;;5088762;28;20203;-68
2021/07/23 07:09:44;;;;;;;5.38;0.75;;;31.60;99.90;;;;;;5090439;28;20224;-68
2021/07/23 07:12:10;;;;;;;0.57;0.45;;;31.70;99.90;;;;;;5078564;28;20234;-68
2021/07/23 07:14:37;;;;;;;1.10;1.00;;;31.70;99.90;;;;;;5091228;28;20219;-68
2021/07/23 07:17:04;;;;;;;0.68;0.50;;;31.50;99.90;;;;;;5091052;28;20660;-68
2021/07/23 07:19:30;;;;;;;0.80;0.80;;;31.90;99.90;;;;;;5089700;28;20183;-68
2021/07/23 07:21:56;;;;;;;1.33;1.10;;;31.30;99.90;;;;;;5087695;28;20187;-69
2021/07/23 07:24:22;;;;;;;1.65;0.75;;;30.70;99.90;;;;;;5093659;28;20179;-69
2021/07/23 07:26:49;;;;;;;1.02;0.77;;;30.30;99.90;;;;;;5094387;28;20195;-69
2021/07/23 07:29:17;;;;;;;0.70;0.70;;;30.40;99.90;;;;;;5089710;28;20172;-68
2021/07/23 07:31:43;;;;;;;8.82;0.95;;;30.20;99.90;;;;;;5089290;28;20286;-68
2021/07/23 07:34:09;;;;;;;0.63;0.50;;;27.90;99.90;;;;;;5090341;28;20190;-68
2021/07/23 07:36:36;;;;;;;1.42;1.33;;;29.10;99.90;;;;;;5085988;28;20246;-68
2021/07/23 07:39:02;;;;;;;0.60;0.50;;;30.30;99.90;;;;;;5101627;28;20185;-68
2021/07/23 07:41:28;;;;;;;0.88;0.77;;;31.10;99.90;;;;;;5099988;28;20193;-68
2021/07/23 07:43:54;;;;;;;1.08;1.08;;;31.70;99.90;;;;;;5088446;28;20206;-68
2021/07/23 07:46:20;;;;;;;1.77;1.35;;;31.20;99.90;;;;;;5100759;28;20202;-67
2021/07/23 07:48:46;;;;;;;0.63;0.63;;;30.20;99.90;;;;;;5094187;28;20194;-68
2021/07/23 07:51:13;;;;;;;0.60;0.60;;;29.90;99.90;;;;;;5083039;28;20230;-68
2021/07/23 07:53:38;;;;;;;0.60;0.47;;;30.60;99.90;;;;;;5082132;28;20513;-67
2021/07/23 07:56:09;;;;;;;0.60;0.60;;;31.00;99.90;;;;;;5101873;28;20203;-68
2021/07/23 07:58:35;;;;;;;1.30;0.68;;;31.70;99.90;;;;;;5106990;28;20154;-68
2021/07/23 08:01:05;;;;;;;0.63;0.63;;;31.80;99.90;;;;;;5104456;28;20178;-67
2021/07/23 08:03:31;;;;;;;4.22;1.10;;;31.90;99.90;;;;;;5079643;28;20188;-67
2021/07/23 08:06:02;;;;;;;1.25;1.02;;;32.40;99.90;;;;;;5083084;28;20199;-67
2021/07/23 08:08:28;;;;;;;1.20;0.73;;;32.20;99.90;;;;;;5093127;28;20216;-68
2021/07/23 08:10:53;;;;;;;1.13;0.80;;;32.20;99.90;;;;;;5105595;28;20213;-68
2021/07/23 08:13:19;;;;;;;1.75;1.27;;;33.10;99.90;;;;;;5097158;28;20176;-68
2021/07/23 08:15:45;;;;;;;0.55;0.55;;;32.30;99.90;;;;;;5083265;28;20266;-67
2021/07/23 08:18:14;;;;;;;3.08;1.25;;;32.70;99.90;;;;;;5090146;28;20175;-67
2021/07/23 08:20:41;;;;;;;1.00;0.63;;;31.30;99.90;;;;;;5091840;28;20179;-68
2021/07/23 08:23:07;;;;;;;1.27;1.13;;;30.50;99.90;;;;;;5088146;28;20265;-67
2021/07/23 08:25:33;;;;;;;1.55;0.90;;;29.70;99.90;;;;;;5087663;28;20191;-68
2021/07/23 08:27:59;;;;;;;3.63;1.90;;;30.50;99.90;;;;;;5088981;28;20187;-68
2021/07/23 08:30:25;;;;;;;1.60;0.88;;;31.70;99.90;;;;;;5091914;28;20197;-68
2021/07/23 08:32:51;;;;;;;0.32;0.32;;;32.00;99.90;;;;;;5097487;28;20178;-67
2021/07/23 08:35:17;;;;;;;1.35;1.25;;;32.40;99.90;;;;;;5101922;28;20194;-68
2021/07/23 08:37:43;;;;;;;1.23;0.95;;;33.20;99.90;;;;;;5089709;28;20202;-68
2021/07/23 08:40:10;;;;;;;3.13;1.10;;;32.20;99.90;;;;;;5090257;28;20179;-68
2021/07/23 08:42:36;;;;;;;2.22;1.17;;;31.10;99.90;;;;;;5091066;28;20191;-68
2021/07/23 08:45:06;;;;;;;0.52;0.52;;;30.90;99.90;;;;;;5094904;28;20178;-67
2021/07/23 08:47:36;;;;;;;1.73;1.27;;;30.90;99.90;;;;;;5098562;28;20282;-67
2021/07/23 08:50:05;;;;;;;1.23;0.90;;;31.20;99.90;;;;;;5088621;28;20199;-68
2021/07/23 08:52:45;;;;;;;1.73;1.63;;;31.50;99.90;;;;;;5089948;28;20223;-68
2021/07/23 08:55:13;;;;;;;1.05;0.95;;;31.30;99.90;;;;;;5085454;28;20250;-67
2021/07/23 08:57:40;;;;;;;1.92;0.93;;;31.40;99.90;;;;;;5087416;28;20174;-69
2021/07/23 09:00:11;;;;;;;2.17;1.23;;;31.80;99.90;;;;;;5086650;28;20179;-67
2021/07/23 09:02:50;;;;;;;8.65;0.60;;;31.30;99.90;;;;;;5087588;28;20195;-67
2021/07/23 09:05:16;;;;;;;1.73;0.82;;;31.50;99.90;;;;;;5087756;28;20178;-68
2021/07/23 09:07:42;;;;;;;0.95;0.80;;;30.90;99.90;;;;;;5070767;28;20210;-68
2021/07/23 09:10:08;;;;;;;1.83;0.70;;;30.60;99.90;;;;;;5068961;28;20160;-67
2021/07/23 09:12:46;;;;;;;0.95;0.93;;;31.40;99.90;;;;;;5068470;28;20200;-68
2021/07/23 09:15:29;;;;;;;1.08;0.95;;;31.50;99.90;;;;;;5068367;28;20156;-68
2021/07/23 09:17:56;;;;;;;1.15;1.00;;;31.00;99.90;;;;;;5082645;28;20224;-68
2021/07/23 09:20:26;;;;;;;9.98;1.48;;;30.00;99.90;;;;;;5087730;28;20156;-67
2021/07/23 09:22:55;;;;;;;3.95;1.08;;;30.70;99.90;;;;;;5088295;28;20236;-68
2021/07/23 09:25:37;;;;;;;4.60;1.58;;;30.80;99.90;;;;;;5087758;28;20156;-67
2021/07/23 09:28:27;;;;;;;1.63;1.38;;;30.30;99.90;;;;;;5079371;28;20191;-68
2021/07/23 09:30:55;;;;;;;2.22;1.70;;;31.10;99.90;;;;;;5086497;28;20198;-68
2021/07/23 09:33:33;;;;;;;1.23;1.13;;;33.20;99.90;;;;;;5086298;28;20237;-68
2021/07/23 09:36:02;;;;;;;0.80;0.80;;;34.90;99.90;;;;;;5087725;28;20187;-68
2021/07/23 09:38:45;;;;;;;3.45;1.50;;;34.70;99.50;;;;;;5089194;28;20148;-70
2021/07/23 09:41:13;;;;;;;1.35;0.93;;;33.50;99.90;;;;;;5087242;28;20171;-70
2021/07/23 09:43:45;;;;;;;2.35;1.52;;;33.50;99.90;;;;;;5089025;28;20231;-70
2021/07/23 09:46:17;;;;;;;1.98;1.48;;;34.10;99.30;;;;;;5088823;28;20158;-70
2021/07/23 09:48:43;;;;;;;0.77;0.63;;;32.50;99.90;;;;;;5088462;28;20179;-70
2021/07/23 09:51:10;;;;;;;0.73;0.73;;;32.40;99.90;;;;;;5087517;28;20183;-70
2021/07/23 09:53:37;;;;;;;1.48;1.38;;;32.20;99.90;;;;;;5088648;28;20190;-70
2021/07/23 09:56:10;;;;;;;4.60;0.98;;;32.40;99.90;;;;;;5088019;28;20174;-69
2021/07/23 09:58:45;;;;;;;3.45;1.77;;;33.30;99.90;;;;;;5088806;28;20160;-69
2021/07/23 10:01:13;;;;;;;1.63;1.20;;;33.20;99.60;;;;;;5085780;28;20645;-70
2021/07/23 10:03:44;;;;;;;3.22;1.42;;;32.60;99.90;;;;;;5065963;28;20182;-69
2021/07/23 10:06:34;;;;;;;1.45;1.35;;;32.50;99.90;;;;;;5079862;28;20175;-70
2021/07/23 10:09:09;;;;;;;1.23;1.10;;;32.40;99.90;;;;;;5065569;28;20196;-70
2021/07/23 10:11:38;;;;;;;1.77;1.67;;;33.10;99.90;;;;;;5079169;28;20209;-69
2021/07/23 10:14:07;;;;;;;1.60;1.42;;;32.90;99.90;;;;;;5088438;28;20159;-68
2021/07/23 10:16:34;;;;;;;2.40;1.48;;;32.10;99.90;;;;;;5088440;28;20183;-68
2021/07/23 10:19:02;;;;;;;0.50;0.50;;;31.70;99.90;;;;;;5088114;28;20172;-69
2021/07/23 10:21:28;;;;;;;1.50;1.40;;;31.80;99.90;;;;;;5087350;28;20175;-68
2021/07/23 10:23:54;;;;;;;1.35;1.20;;;31.20;99.90;;;;;;5086820;28;20175;-70
2021/07/23 10:26:32;;;;;;;5.80;2.00;;;30.50;99.90;;;;;;5087377;28;20164;-69
2021/07/23 10:28:59;;;;;;;1.25;0.85;;;31.40;99.90;;;;;;5088594;28;20258;-69
2021/07/23 10:31:25;;;;;;;1.65;1.55;;;31.90;99.90;;;;;;5088254;28;20199;-70
2021/07/23 10:33:54;;;;;;;2.50;1.45;;;31.90;99.90;;;;;;5092444;28;20296;-69
2021/07/23 10:36:41;;;;;;;5.38;2.55;;;31.30;99.90;;;;;;5092398;28;20167;-69
2021/07/23 10:39:09;;;;;;;1.50;0.98;;;31.80;99.90;;;;;;5092588;28;20178;-69
2021/07/23 10:42:02;;;;;;;1.42;1.10;;;31.40;99.90;;;;;;5091957;28;20158;-69
2021/07/23 10:44:28;;;;;;;1.98;1.77;;;31.50;99.90;;;;;;5091898;28;20273;-70
2021/07/23 10:46:56;;;;;;;2.38;1.83;;;33.00;99.90;;;;;;5091957;28;20219;-70
2021/07/23 10:49:28;;;;;;;1.38;1.35;;;34.10;99.90;;;;;;5090863;28;20238;-69
2021/07/23 10:52:00;;;;;;;1.88;1.20;;;34.70;99.90;;;;;;5090500;28;20206;-69
2021/07/23 10:54:31;;;;;;;1.40;1.30;;;34.90;99.30;;;;;;5092053;28;20160;-70
2021/07/23 10:56:58;;;;;;;4.18;1.67;;;33.20;99.90;;;;;;5091894;28;20756;-69
2021/07/23 10:59:50;;;;;;;1.98;1.20;;;33.50;99.90;;;;;;5092321;28;20156;-69
2021/07/23 11:02:18;;;;;;;1.63;1.33;;;32.40;99.90;;;;;;5087888;28;20241;-68
2021/07/23 11:04:51;;;;;;;2.08;1.85;;;31.50;99.90;;;;;;5091692;28;20152;-69
2021/07/23 11:07:24;;;;;;;2.30;1.90;;;31.80;99.90;;;;;;5091869;28;20203;-69
2021/07/23 11:09:50;;;;;;;1.75;0.75;;;31.40;99.90;;;;;;5090634;28;20202;-68
2021/07/23 11:12:18;;;;;;;3.03;1.50;;;30.60;99.90;;;;;;5091453;28;20179;-68
2021/07/23 11:15:07;;;;;;;2.40;1.58;;;30.40;99.90;;;;;;5090270;28;20171;-69
2021/07/23 11:17:46;;;;;;;1.58;1.13;;;30.60;99.90;;;;;;5091552;28;20199;-68
2021/07/23 11:20:12;;;;;;;4.57;1.77;;;29.50;99.90;;;;;;5091599;28;20152;-69
2021/07/23 11:22:38;;;;;;;4.78;1.58;;;29.60;99.90;;;;;;5091336;28;20163;-68
2021/07/23 11:25:08;;;;;;;2.17;1.75;;;30.90;99.90;;;;;;5091301;28;20160;-69
2021/07/23 11:27:36;;;;;;;1.60;1.23;;;31.50;99.90;;;;;;5091424;28;20243;-70
2021/07/23 11:30:26;;;;;;;1.55;1.25;;;31.40;99.90;;;;;;5091445;28;20216;-70
2021/07/23 11:32:54;;;;;;;2.13;1.70;;;31.10;99.90;;;;;;5091145;28;20222;-70
2021/07/23 11:35:21;;;;;;;1.13;0.70;;;30.50;99.90;;;;;;5090939;28;20166;-70
2021/07/23 11:37:48;;;;;;;1.98;1.45;;;29.80;99.90;;;;;;5090837;28;20180;-69
2021/07/23 11:40:16;;;;;;;3.50;1.55;;;28.60;99.90;;;;;;5091171;28;20167;-69
2021/07/23 11:42:45;;;;;;;0.90;0.85;;;28.50;99.90;;;;;;5090159;28;20155;-69
2021/07/23 11:45:13;;;;;;;7.07;1.08;;;28.10;99.90;;;;;;5091048;28;20221;-69
2021/07/23 11:47:48;;;;;;;1.38;1.27;;;27.50;99.90;;;;;;5091179;28;20233;-69
2021/07/23 11:50:19;;;;;;;1.52;1.42;;;27.20;99.90;;;;;;5091008;28;20585;-69
2021/07/23 11:52:46;;;;;;;1.73;1.63;;;26.60;99.90;;;;;;5089446;28;20210;-69
2021/07/23 11:55:15;;;;;;;2.63;1.48;;;26.00;99.90;;;;;;5090814;28;20228;-70
2021/07/23 11:57:41;;;;;;;1.90;1.77;;;26.00;99.90;;;;;;5090970;28;20275;-70
2021/07/23 12:00:27;;;;;;;2.50;1.73;;;26.00;99.90;;;;;;5090820;28;20182;-69
2021/07/23 12:02:54;;;;;;;1.15;0.88;;;26.00;99.90;;;;;;5090892;28;20663;-69
2021/07/23 12:05:21;;;;;;;0.88;0.80;;;26.00;99.90;;;;;;5090367;28;20151;-68
2021/07/23 12:08:01;;;;;;;3.03;1.42;;;25.80;99.90;;;;;;5090650;28;20680;-69
2021/07/23 12:10:30;;;;;;;1.48;1.30;;;25.80;99.90;;;;;;5090939;28;20152;-69
2021/07/23 12:12:57;;;;;;;2.13;1.25;;;25.60;99.90;;;;;;5090838;28;20182;-68
2021/07/23 12:15:23;;;;;;;1.77;1.15;;;25.50;99.90;;;;;;5090052;28;20163;-69
2021/07/23 12:17:50;;;;;;;1.33;0.90;;;25.70;99.90;;;;;;5090679;28;20555;-69
2021/07/23 12:20:17;;;;;;;0.75;0.75;;;26.20;99.90;;;;;;5089357;28;20159;-69
2021/07/23 12:22:59;;;;;;;0.90;0.90;;;26.40;99.90;;;;;;5089138;28;20175;-69
2021/07/23 12:25:32;;;;;;;0.73;0.73;;;26.80;99.90;;;;;;5090014;28;20159;-69
2021/07/23 12:28:12;;;;;;;1.25;1.15;;;26.90;99.90;;;;;;5090334;28;20225;-69
2021/07/23 12:30:40;;;;;;;1.55;1.42;;;27.10;99.90;;;;;;5090322;28;20160;-70
2021/07/23 12:33:18;;;;;;;0.70;0.70;;;27.00;99.90;;;;;;5088866;28;20167;-69
2021/07/23 12:35:45;;;;;;;1.20;0.47;;;26.70;99.90;;;;;;5088520;28;20171;-68
2021/07/23 12:38:12;;;;;;;0.95;0.85;;;26.60;99.90;;;;;;5090101;28;20206;-69
2021/07/23 12:40:48;;;;;;;2.38;1.40;;;27.00;99.90;;;;;;5090357;28;20151;-70
2021/07/23 12:43:18;;;;;;;1.15;0.88;;;27.00;99.90;;;;;;5089795;28;20181;-70
2021/07/23 12:45:45;;;;;;;4.55;1.65;;;26.90;99.90;;;;;;5090134;28;20735;-69
2021/07/23 12:48:16;;;;;;;0.70;0.70;;;26.50;99.90;;;;;;5089799;28;20309;-70
2021/07/23 12:50:43;;;;;;;3.17;1.95;;;26.30;99.90;;;;;;5090024;28;20195;-70
2021/07/23 12:53:11;;;;;;;0.68;0.68;;;26.40;99.90;;;;;;5088778;28;20167;-70